<?xml version="1.0" encoding="UTF-8" standalone="no" ?>
<gpx xmlns="http://www.topografix.com/GPX/1/1" xmlns:xsi="http://www.w3.org/2001/XMLSchema-instance" xsi:schemaLocation="http://www.topografix.com/GPX/1/1 http://www.topografix.com/GPX/1/1/gpx.xsd" version="1.1" creator="VisuGPX - https://www.visugpx.com">
  <metadata>
    <name>Etape 2 Férel - Les Moûtiers</name>
    <desc><![CDATA[Randonnée vélo Rennes - Hendaye, empruntant la Vélodyssée à partir de Saint-Brevin-Les-Pins. ]]></desc>
  </metadata>
  <trk>
    <name><![CDATA[Sequence 13]]></name>
    <trkseg>
      <trkpt lat="47.30238" lon="-2.18638">
        <ele>-2</ele>
        <time>2016-07-22T06:38:52Z</time>
      </trkpt>
      <trkpt lat="47.30229" lon="-2.18657">
        <ele>-2</ele>
        <time>2016-07-22T06:38:55Z</time>
      </trkpt>
      <trkpt lat="47.3022" lon="-2.18675">
        <ele>-3</ele>
        <time>2016-07-22T06:38:58Z</time>
      </trkpt>
      <trkpt lat="47.30204" lon="-2.18706">
        <ele>-2</ele>
        <time>2016-07-22T06:39:03Z</time>
      </trkpt>
      <trkpt lat="47.3019" lon="-2.18737">
        <ele>5</ele>
        <time>2016-07-22T06:39:08Z</time>
      </trkpt>
      <trkpt lat="47.30175" lon="-2.18765">
        <ele>1</ele>
        <time>2016-07-22T06:39:13Z</time>
      </trkpt>
      <trkpt lat="47.30162" lon="-2.18791">
        <ele>3</ele>
        <time>2016-07-22T06:39:18Z</time>
      </trkpt>
      <trkpt lat="47.30149" lon="-2.18821">
        <ele>5</ele>
        <time>2016-07-22T06:39:23Z</time>
      </trkpt>
      <trkpt lat="47.30137" lon="-2.18848">
        <ele>9</ele>
        <time>2016-07-22T06:39:28Z</time>
      </trkpt>
      <trkpt lat="47.30123" lon="-2.18877">
        <ele>9</ele>
        <time>2016-07-22T06:39:33Z</time>
      </trkpt>
      <trkpt lat="47.30108" lon="-2.1891">
        <ele>11</ele>
        <time>2016-07-22T06:39:38Z</time>
      </trkpt>
      <trkpt lat="47.30092" lon="-2.18937">
        <ele>11</ele>
        <time>2016-07-22T06:39:43Z</time>
      </trkpt>
      <trkpt lat="47.30075" lon="-2.18965">
        <ele>11</ele>
        <time>2016-07-22T06:39:48Z</time>
      </trkpt>
      <trkpt lat="47.30053" lon="-2.19">
        <ele>10</ele>
        <time>2016-07-22T06:39:55Z</time>
      </trkpt>
      <trkpt lat="47.30036" lon="-2.19026">
        <ele>10</ele>
        <time>2016-07-22T06:40:00Z</time>
      </trkpt>
      <trkpt lat="47.30019" lon="-2.19052">
        <ele>10</ele>
        <time>2016-07-22T06:40:05Z</time>
      </trkpt>
      <trkpt lat="47.3001" lon="-2.1907">
        <ele>12</ele>
        <time>2016-07-22T06:40:08Z</time>
      </trkpt>
      <trkpt lat="47.29989" lon="-2.19102">
        <ele>6</ele>
        <time>2016-07-22T06:40:13Z</time>
      </trkpt>
      <trkpt lat="47.29967" lon="-2.19134">
        <ele>7</ele>
        <time>2016-07-22T06:40:19Z</time>
      </trkpt>
      <trkpt lat="47.29952" lon="-2.19159">
        <ele>7</ele>
        <time>2016-07-22T06:40:23Z</time>
      </trkpt>
      <trkpt lat="47.29923" lon="-2.19205">
        <ele>6</ele>
        <time>2016-07-22T06:40:30Z</time>
      </trkpt>
      <trkpt lat="47.29907" lon="-2.19229">
        <ele>5</ele>
        <time>2016-07-22T06:40:34Z</time>
      </trkpt>
      <trkpt lat="47.29895" lon="-2.19257">
        <ele>7</ele>
        <time>2016-07-22T06:40:38Z</time>
      </trkpt>
      <trkpt lat="47.29873" lon="-2.1929">
        <ele>5</ele>
        <time>2016-07-22T06:40:43Z</time>
      </trkpt>
      <trkpt lat="47.29851" lon="-2.19323">
        <ele>5</ele>
        <time>2016-07-22T06:40:48Z</time>
      </trkpt>
      <trkpt lat="47.29832" lon="-2.19355">
        <ele>5</ele>
        <time>2016-07-22T06:40:53Z</time>
      </trkpt>
      <trkpt lat="47.29819" lon="-2.19374">
        <ele>4</ele>
        <time>2016-07-22T06:40:58Z</time>
      </trkpt>
      <trkpt lat="47.29819" lon="-2.19377">
        <ele>2</ele>
        <time>2016-07-22T06:41:03Z</time>
      </trkpt>
      <trkpt lat="47.2982" lon="-2.19378">
        <ele>3</ele>
        <time>2016-07-22T06:41:08Z</time>
      </trkpt>
      <trkpt lat="47.2982" lon="-2.19379">
        <ele>3</ele>
        <time>2016-07-22T06:41:13Z</time>
      </trkpt>
      <trkpt lat="47.2982" lon="-2.19379">
        <ele>2</ele>
        <time>2016-07-22T06:41:18Z</time>
      </trkpt>
      <trkpt lat="47.2982" lon="-2.19379">
        <ele>2</ele>
        <time>2016-07-22T06:41:23Z</time>
      </trkpt>
      <trkpt lat="47.2982" lon="-2.19379">
        <ele>2</ele>
        <time>2016-07-22T06:41:28Z</time>
      </trkpt>
      <trkpt lat="47.2982" lon="-2.19379">
        <ele>2</ele>
        <time>2016-07-22T06:41:33Z</time>
      </trkpt>
      <trkpt lat="47.2982" lon="-2.19379">
        <ele>2</ele>
        <time>2016-07-22T06:41:39Z</time>
      </trkpt>
      <trkpt lat="47.2982" lon="-2.19379">
        <ele>2</ele>
        <time>2016-07-22T06:41:43Z</time>
      </trkpt>
      <trkpt lat="47.29818" lon="-2.19381">
        <ele>4</ele>
        <time>2016-07-22T06:41:49Z</time>
      </trkpt>
      <trkpt lat="47.2981" lon="-2.19394">
        <ele>7</ele>
        <time>2016-07-22T06:41:53Z</time>
      </trkpt>
      <trkpt lat="47.29785" lon="-2.19434">
        <ele>7</ele>
        <time>2016-07-22T06:42:01Z</time>
      </trkpt>
      <trkpt lat="47.29773" lon="-2.19451">
        <ele>4</ele>
        <time>2016-07-22T06:42:04Z</time>
      </trkpt>
      <trkpt lat="47.29754" lon="-2.19474">
        <ele>3</ele>
        <time>2016-07-22T06:42:08Z</time>
      </trkpt>
      <trkpt lat="47.29728" lon="-2.19519">
        <ele>14</ele>
        <time>2016-07-22T06:42:17Z</time>
      </trkpt>
      <trkpt lat="47.29725" lon="-2.19523">
        <ele>15</ele>
        <time>2016-07-22T06:42:18Z</time>
      </trkpt>
      <trkpt lat="47.29696" lon="-2.19551">
        <ele>18</ele>
        <time>2016-07-22T06:42:24Z</time>
      </trkpt>
      <trkpt lat="47.29671" lon="-2.19571">
        <ele>16</ele>
        <time>2016-07-22T06:42:29Z</time>
      </trkpt>
      <trkpt lat="47.29646" lon="-2.19594">
        <ele>16</ele>
        <time>2016-07-22T06:42:35Z</time>
      </trkpt>
      <trkpt lat="47.29628" lon="-2.19603">
        <ele>11</ele>
        <time>2016-07-22T06:42:38Z</time>
      </trkpt>
      <trkpt lat="47.29605" lon="-2.19626">
        <ele>11</ele>
        <time>2016-07-22T06:42:44Z</time>
      </trkpt>
      <trkpt lat="47.29581" lon="-2.19647">
        <ele>10</ele>
        <time>2016-07-22T06:42:49Z</time>
      </trkpt>
      <trkpt lat="47.29563" lon="-2.19664">
        <ele>10</ele>
        <time>2016-07-22T06:42:53Z</time>
      </trkpt>
      <trkpt lat="47.29541" lon="-2.19682">
        <ele>9</ele>
        <time>2016-07-22T06:42:58Z</time>
      </trkpt>
      <trkpt lat="47.29502" lon="-2.19713">
        <ele>8</ele>
        <time>2016-07-22T06:43:06Z</time>
      </trkpt>
      <trkpt lat="47.29476" lon="-2.19737">
        <ele>8</ele>
        <time>2016-07-22T06:43:12Z</time>
      </trkpt>
      <trkpt lat="47.29459" lon="-2.19754">
        <ele>11</ele>
        <time>2016-07-22T06:43:16Z</time>
      </trkpt>
      <trkpt lat="47.29449" lon="-2.1976">
        <ele>10</ele>
        <time>2016-07-22T06:43:18Z</time>
      </trkpt>
      <trkpt lat="47.29429" lon="-2.1978">
        <ele>9</ele>
        <time>2016-07-22T06:43:23Z</time>
      </trkpt>
      <trkpt lat="47.29389" lon="-2.19814">
        <ele>8</ele>
        <time>2016-07-22T06:43:32Z</time>
      </trkpt>
      <trkpt lat="47.29374" lon="-2.1983">
        <ele>6</ele>
        <time>2016-07-22T06:43:36Z</time>
      </trkpt>
      <trkpt lat="47.29361" lon="-2.1984">
        <ele>10</ele>
        <time>2016-07-22T06:43:39Z</time>
      </trkpt>
      <trkpt lat="47.29339" lon="-2.19854">
        <ele>9</ele>
        <time>2016-07-22T06:43:44Z</time>
      </trkpt>
      <trkpt lat="47.2932" lon="-2.19866">
        <ele>8</ele>
        <time>2016-07-22T06:43:48Z</time>
      </trkpt>
      <trkpt lat="47.29298" lon="-2.19878">
        <ele>11</ele>
        <time>2016-07-22T06:43:53Z</time>
      </trkpt>
      <trkpt lat="47.29275" lon="-2.19891">
        <ele>11</ele>
        <time>2016-07-22T06:43:58Z</time>
      </trkpt>
      <trkpt lat="47.29253" lon="-2.199">
        <ele>12</ele>
        <time>2016-07-22T06:44:03Z</time>
      </trkpt>
      <trkpt lat="47.29232" lon="-2.19907">
        <ele>10</ele>
        <time>2016-07-22T06:44:08Z</time>
      </trkpt>
      <trkpt lat="47.29209" lon="-2.19912">
        <ele>11</ele>
        <time>2016-07-22T06:44:13Z</time>
      </trkpt>
      <trkpt lat="47.29185" lon="-2.19918">
        <ele>8</ele>
        <time>2016-07-22T06:44:18Z</time>
      </trkpt>
      <trkpt lat="47.29162" lon="-2.19927">
        <ele>6</ele>
        <time>2016-07-22T06:44:23Z</time>
      </trkpt>
      <trkpt lat="47.29146" lon="-2.19933">
        <ele>5</ele>
        <time>2016-07-22T06:44:29Z</time>
      </trkpt>
      <trkpt lat="47.29133" lon="-2.19938">
        <ele>3</ele>
        <time>2016-07-22T06:44:33Z</time>
      </trkpt>
      <trkpt lat="47.29105" lon="-2.19948">
        <ele>4</ele>
        <time>2016-07-22T06:44:40Z</time>
      </trkpt>
      <trkpt lat="47.2909" lon="-2.19954">
        <ele>3</ele>
        <time>2016-07-22T06:44:44Z</time>
      </trkpt>
      <trkpt lat="47.29074" lon="-2.1996">
        <ele>2</ele>
        <time>2016-07-22T06:44:48Z</time>
      </trkpt>
      <trkpt lat="47.29053" lon="-2.19967">
        <ele>3</ele>
        <time>2016-07-22T06:44:53Z</time>
      </trkpt>
      <trkpt lat="47.29029" lon="-2.19976">
        <ele>4</ele>
        <time>2016-07-22T06:44:58Z</time>
      </trkpt>
      <trkpt lat="47.29004" lon="-2.1998">
        <ele>4</ele>
        <time>2016-07-22T06:45:03Z</time>
      </trkpt>
      <trkpt lat="47.28969" lon="-2.19992">
        <ele>4</ele>
        <time>2016-07-22T06:45:09Z</time>
      </trkpt>
      <trkpt lat="47.28948" lon="-2.2">
        <ele>4</ele>
        <time>2016-07-22T06:45:13Z</time>
      </trkpt>
      <trkpt lat="47.28922" lon="-2.20008">
        <ele>-1</ele>
        <time>2016-07-22T06:45:18Z</time>
      </trkpt>
      <trkpt lat="47.28895" lon="-2.20017">
        <ele>3.9</ele>
        <time>2016-07-22T06:45:23Z</time>
      </trkpt>
      <trkpt lat="47.28868" lon="-2.20025">
        <ele>-1</ele>
        <time>2016-07-22T06:45:28Z</time>
      </trkpt>
      <trkpt lat="47.28841" lon="-2.20032">
        <ele>1</ele>
        <time>2016-07-22T06:45:33Z</time>
      </trkpt>
      <trkpt lat="47.28816" lon="-2.20042">
        <ele>2</ele>
        <time>2016-07-22T06:45:38Z</time>
      </trkpt>
      <trkpt lat="47.2879" lon="-2.20049">
        <ele>2</ele>
        <time>2016-07-22T06:45:43Z</time>
      </trkpt>
      <trkpt lat="47.2875" lon="-2.20061">
        <ele>2</ele>
        <time>2016-07-22T06:45:50Z</time>
      </trkpt>
      <trkpt lat="47.28733" lon="-2.20067">
        <ele>2</ele>
        <time>2016-07-22T06:45:53Z</time>
      </trkpt>
      <trkpt lat="47.28703" lon="-2.20076">
        <ele>4</ele>
        <time>2016-07-22T06:45:58Z</time>
      </trkpt>
      <trkpt lat="47.28674" lon="-2.20081">
        <ele>3.3</ele>
        <time>2016-07-22T06:46:03Z</time>
      </trkpt>
      <trkpt lat="47.28646" lon="-2.20088">
        <ele>3</ele>
        <time>2016-07-22T06:46:08Z</time>
      </trkpt>
      <trkpt lat="47.28612" lon="-2.20096">
        <ele>3</ele>
        <time>2016-07-22T06:46:14Z</time>
      </trkpt>
      <trkpt lat="47.28592" lon="-2.20102">
        <ele>3.5</ele>
        <time>2016-07-22T06:46:18Z</time>
      </trkpt>
      <trkpt lat="47.28563" lon="-2.20106">
        <ele>3.4</ele>
        <time>2016-07-22T06:46:23Z</time>
      </trkpt>
      <trkpt lat="47.28529" lon="-2.20117">
        <ele>1</ele>
        <time>2016-07-22T06:46:29Z</time>
      </trkpt>
      <trkpt lat="47.28489" lon="-2.20127">
        <ele>4</ele>
        <time>2016-07-22T06:46:36Z</time>
      </trkpt>
      <trkpt lat="47.2848" lon="-2.2013">
        <ele>4</ele>
        <time>2016-07-22T06:46:38Z</time>
      </trkpt>
      <trkpt lat="47.28449" lon="-2.20136">
        <ele>2</ele>
        <time>2016-07-22T06:46:43Z</time>
      </trkpt>
      <trkpt lat="47.2842" lon="-2.20143">
        <ele>2</ele>
        <time>2016-07-22T06:46:48Z</time>
      </trkpt>
      <trkpt lat="47.28394" lon="-2.20152">
        <ele>5</ele>
        <time>2016-07-22T06:46:53Z</time>
      </trkpt>
      <trkpt lat="47.28347" lon="-2.20163">
        <ele>10</ele>
        <time>2016-07-22T06:47:01Z</time>
      </trkpt>
      <trkpt lat="47.28316" lon="-2.20171">
        <ele>13</ele>
        <time>2016-07-22T06:47:07Z</time>
      </trkpt>
      <trkpt lat="47.28287" lon="-2.2018">
        <ele>7</ele>
        <time>2016-07-22T06:47:12Z</time>
      </trkpt>
      <trkpt lat="47.28282" lon="-2.20181">
        <ele>9</ele>
        <time>2016-07-22T06:47:13Z</time>
      </trkpt>
      <trkpt lat="47.28255" lon="-2.2019">
        <ele>7</ele>
        <time>2016-07-22T06:47:18Z</time>
      </trkpt>
      <trkpt lat="47.28229" lon="-2.20194">
        <ele>6</ele>
        <time>2016-07-22T06:47:23Z</time>
      </trkpt>
      <trkpt lat="47.28202" lon="-2.20203">
        <ele>13</ele>
        <time>2016-07-22T06:47:28Z</time>
      </trkpt>
      <trkpt lat="47.2818" lon="-2.20214">
        <ele>14</ele>
        <time>2016-07-22T06:47:33Z</time>
      </trkpt>
      <trkpt lat="47.28154" lon="-2.20222">
        <ele>10</ele>
        <time>2016-07-22T06:47:38Z</time>
      </trkpt>
      <trkpt lat="47.28129" lon="-2.20228">
        <ele>11</ele>
        <time>2016-07-22T06:47:43Z</time>
      </trkpt>
      <trkpt lat="47.28104" lon="-2.20234">
        <ele>12</ele>
        <time>2016-07-22T06:47:48Z</time>
      </trkpt>
      <trkpt lat="47.28078" lon="-2.20241">
        <ele>12</ele>
        <time>2016-07-22T06:47:53Z</time>
      </trkpt>
      <trkpt lat="47.28038" lon="-2.20251">
        <ele>11</ele>
        <time>2016-07-22T06:48:01Z</time>
      </trkpt>
      <trkpt lat="47.28026" lon="-2.20253">
        <ele>10</ele>
        <time>2016-07-22T06:48:03Z</time>
      </trkpt>
      <trkpt lat="47.27983" lon="-2.20264">
        <ele>9</ele>
        <time>2016-07-22T06:48:12Z</time>
      </trkpt>
      <trkpt lat="47.27967" lon="-2.20268">
        <ele>9</ele>
        <time>2016-07-22T06:48:16Z</time>
      </trkpt>
      <trkpt lat="47.27954" lon="-2.20272">
        <ele>8</ele>
        <time>2016-07-22T06:48:19Z</time>
      </trkpt>
      <trkpt lat="47.27942" lon="-2.20279">
        <ele>7</ele>
        <time>2016-07-22T06:48:25Z</time>
      </trkpt>
      <trkpt lat="47.27942" lon="-2.2028">
        <ele>7</ele>
        <time>2016-07-22T06:48:30Z</time>
      </trkpt>
      <trkpt lat="47.27941" lon="-2.2028">
        <ele>6</ele>
        <time>2016-07-22T06:48:33Z</time>
      </trkpt>
      <trkpt lat="47.27937" lon="-2.20279">
        <ele>5</ele>
        <time>2016-07-22T06:48:40Z</time>
      </trkpt>
    </trkseg>
  </trk>
</gpx>